createdAt,value
2018-04-01T00:03:40.661Z,27.63
2018-04-01T00:07:42.823Z,29.63
2018-04-01T00:11:44.983Z,34.20
2018-04-01T00:15:47.141Z,34.27
2018-04-01T00:19:49.327Z,32.33
2018-04-01T00:23:51.444Z,35.80
2018-04-01T00:27:53.590Z,34.80
2018-04-01T00:31:55.745Z,35.80
2018-04-01T00:35:58.665Z,37.40
2018-04-01T00:40:00.830Z,36.70
2018-04-01T00:44:02.979Z,36.57
2018-04-01T00:48:05.122Z,33.57
2018-04-01T00:52:07.273Z,34.73
2018-04-01T00:56:09.433Z,34.73
2018-04-01T01:00:12.350Z,33.90
2018-04-01T01:04:14.468Z,34.57
2018-04-01T01:08:17.393Z,34.17
2018-04-01T01:12:19.551Z,34.83
2018-04-01T01:16:21.720Z,32.87
2018-04-01T01:20:24.605Z,34.87
2018-04-01T01:24:27.522Z,41.23
2018-04-01T01:28:29.665Z,38.73
2018-04-01T01:32:31.818Z,32.77
2018-04-01T01:36:33.967Z,34.17
2018-04-01T01:40:36.124Z,34.53
2018-04-01T01:44:38.288Z,39.23
2018-04-01T01:48:41.203Z,40.43
2018-04-01T01:52:43.378Z,39.83
2018-04-01T01:56:45.517Z,38.83
2018-04-01T02:00:47.638Z,40.20
2018-04-01T02:04:49.781Z,43.63
2018-04-01T02:08:52.702Z,41.40
2018-04-01T02:12:54.839Z,42.97
2018-04-01T02:16:56.998Z,43.80
2018-04-01T02:20:59.129Z,44.60
2018-04-01T02:25:01.287Z,48.23
2018-04-01T02:29:04.211Z,46.30
2018-04-01T02:33:06.366Z,47.43
2018-04-01T02:37:08.535Z,46.37
2018-04-01T02:41:11.417Z,52.53
2018-04-01T02:45:13.606Z,56.10
2018-04-01T02:49:16.515Z,55.37
2018-04-01T02:53:18.675Z,56.90
2018-04-01T02:57:21.554Z,54.77
2018-04-01T03:01:23.717Z,55.20
2018-04-01T03:05:25.869Z,50.33
2018-04-01T03:09:28.784Z,47.97
2018-04-01T03:13:30.942Z,44.13
2018-04-01T03:17:33.055Z,43.27
2018-04-01T03:21:35.203Z,47.77
2018-04-01T03:25:37.349Z,45.00
2018-04-01T03:29:39.492Z,46.47
2018-04-01T03:33:41.602Z,46.40
2018-04-01T03:37:43.754Z,45.83
2018-04-01T03:41:46.670Z,46.03
2018-04-01T03:45:48.859Z,47.83
2018-04-01T03:49:51.034Z,40.97
2018-04-01T03:53:53.149Z,41.17
2018-04-01T03:57:55.302Z,40.17
2018-04-01T04:01:57.454Z,36.50
2018-04-01T04:05:59.627Z,35.27
2018-04-01T04:10:02.409Z,33.30
2018-04-01T04:14:05.294Z,32.17
2018-04-01T04:18:08.214Z,30.33
2018-04-01T04:22:10.368Z,31.37
2018-04-01T04:26:13.294Z,31.83
2018-04-01T04:30:15.433Z,31.40
2018-04-01T04:34:18.328Z,33.13
2018-04-01T04:38:20.501Z,32.83
2018-04-01T04:42:22.649Z,32.23
2018-04-01T04:46:24.798Z,34.47
2018-04-01T04:50:26.906Z,31.87
2018-04-01T04:54:29.060Z,33.33
2018-04-01T04:58:31.212Z,31.00
2018-04-01T05:02:33.354Z,28.83
2018-04-01T05:06:35.506Z,29.33
2018-04-01T05:10:37.619Z,28.00
2018-04-01T05:14:40.529Z,28.13
2018-04-01T05:18:42.674Z,30.10
2018-04-01T05:22:44.834Z,29.30
2018-04-01T05:26:46.982Z,31.63
2018-04-01T05:30:49.097Z,29.77
2018-04-01T05:34:51.239Z,30.87
2018-04-01T05:38:53.398Z,30.70
2018-04-01T05:42:55.562Z,27.77
2018-04-01T05:46:57.719Z,26.23
2018-04-01T05:51:00.604Z,22.47
2018-04-01T05:55:02.802Z,20.17
2018-04-01T05:59:05.724Z,18.80
2018-04-01T06:03:07.873Z,18.00
2018-04-01T06:07:10.890Z,16.33
2018-04-01T06:11:13.001Z,16.10
2018-04-01T06:15:15.151Z,16.87
2018-04-01T06:19:17.326Z,15.57
2018-04-01T06:23:19.476Z,14.70
2018-04-01T06:27:22.362Z,15.43
2018-04-01T06:31:25.264Z,16.83
2018-04-01T06:35:27.445Z,17.07
2018-04-01T06:39:30.360Z,15.80
2018-04-01T06:43:32.509Z,13.37
2018-04-01T06:47:35.386Z,14.97
2018-04-01T06:51:37.535Z,15.77
2018-04-01T06:59:56.306Z,17.83
2018-04-01T07:03:59.224Z,15.17
2018-04-01T07:08:01.342Z,13.10
2018-04-01T07:12:04.254Z,15.27
2018-04-01T07:16:06.428Z,14.97
2018-04-01T07:20:08.644Z,15.20
2018-04-01T07:24:10.792Z,15.60
2018-04-01T07:28:12.899Z,15.67
2018-04-01T07:32:15.045Z,15.87
2018-04-01T07:36:17.226Z,15.80
2018-04-01T07:40:19.378Z,17.13
2018-04-01T07:44:21.749Z,20.70
2018-04-01T07:48:23.858Z,20.63
2018-04-01T07:52:26.000Z,22.43
2018-04-01T07:56:28.143Z,23.03
2018-04-01T08:00:30.318Z,24.87
2018-04-01T08:04:32.465Z,23.17
2018-04-01T08:08:34.576Z,19.93
2018-04-01T08:12:36.730Z,18.77
2018-04-01T08:16:38.872Z,23.07
2018-04-01T08:20:41.777Z,25.27
2018-04-01T08:24:43.885Z,25.93
2018-04-01T08:28:46.029Z,25.67
2018-04-01T08:32:49.026Z,25.40
2018-04-01T08:36:51.248Z,28.60
2018-04-01T08:40:53.397Z,26.47
2018-04-01T08:44:55.509Z,25.20
2018-04-01T08:48:57.668Z,21.90
2018-04-01T08:52:59.821Z,21.27
2018-04-01T08:57:01.965Z,17.20
2018-04-01T09:01:04.107Z,14.83
2018-04-01T09:05:06.222Z,17.93
2018-04-01T09:09:09.143Z,18.33
2018-04-01T09:13:11.294Z,19.37
2018-04-01T09:17:14.201Z,20.20
2018-04-01T09:21:17.121Z,20.37
2018-04-01T09:25:19.242Z,22.87
2018-04-01T09:29:21.435Z,22.67
2018-04-01T09:33:24.352Z,23.90
2018-04-01T09:37:26.502Z,19.00
2018-04-01T09:41:28.654Z,17.77
2018-04-01T09:45:30.772Z,14.50
2018-04-01T09:49:33.689Z,12.97
2018-04-01T09:53:35.837Z,12.03
2018-04-01T09:57:38.757Z,13.73
2018-04-01T10:01:41.421Z,13.10
2018-04-01T10:05:44.105Z,14.57
2018-04-01T10:09:47.519Z,14.40
2018-04-01T10:13:50.930Z,13.73
2018-04-01T10:17:54.306Z,14.03
2018-04-01T10:21:56.951Z,11.83
2018-04-01T10:25:59.649Z,13.00
2018-04-01T10:30:03.049Z,12.23
2018-04-01T10:34:06.541Z,11.13
2018-04-01T10:38:09.209Z,10.90
2018-04-01T10:42:12.620Z,11.00
2018-04-01T10:46:16.033Z,10.10
2018-04-01T10:50:18.679Z,9.10
2018-04-01T10:54:20.851Z,11.17
2018-04-01T10:58:22.973Z,13.10
2018-04-01T11:02:25.167Z,15.27
2018-04-01T11:06:27.333Z,16.53
2018-04-01T11:10:30.106Z,24.03
2018-04-01T11:14:33.037Z,23.53
2018-04-01T11:18:35.149Z,24.83
2018-04-01T11:22:37.293Z,23.67
2018-04-01T11:26:39.448Z,20.73
2018-04-01T11:30:41.606Z,18.27
2018-04-01T11:34:44.480Z,16.30
2018-04-01T11:38:46.628Z,18.77
2018-04-01T11:42:48.776Z,16.17
2018-04-01T11:46:50.927Z,15.20
2018-04-01T11:50:53.854Z,16.20
2018-04-01T11:54:55.986Z,16.43
2018-04-01T11:58:58.153Z,15.83
2018-04-01T12:03:00.315Z,15.40
2018-04-01T12:07:02.471Z,16.03
2018-04-01T12:11:04.627Z,17.50
2018-04-01T12:15:06.758Z,16.57
2018-04-01T12:19:08.919Z,13.07
2018-04-01T12:23:11.069Z,13.83
2018-04-01T12:27:13.210Z,12.30
2018-04-01T12:31:16.128Z,13.93
2018-04-01T12:35:18.277Z,11.93
2018-04-01T12:39:20.430Z,12.70
2018-04-01T12:43:22.578Z,11.53
2018-04-01T12:47:24.730Z,10.67
2018-04-01T12:51:26.853Z,11.77
2018-04-01T12:55:29.005Z,13.27
2018-04-01T12:59:31.161Z,14.43
2018-04-01T13:03:33.309Z,13.50
2018-04-01T13:07:35.452Z,16.07
2018-04-01T13:11:37.563Z,14.73
2018-04-01T13:15:39.713Z,16.13
2018-04-01T13:19:41.862Z,12.40
2018-04-01T13:23:44.006Z,15.67
2018-04-01T13:27:46.922Z,20.03
2018-04-01T13:31:49.040Z,17.97
2018-04-01T13:35:51.186Z,17.27
2018-04-01T13:39:53.333Z,16.93
2018-04-01T13:43:56.244Z,14.90
2018-04-01T13:47:59.154Z,12.77
2018-04-01T13:52:01.298Z,12.23
2018-04-01T13:56:04.211Z,9.03
2018-04-01T14:00:06.351Z,9.07
2018-04-01T14:04:08.502Z,12.80
2018-04-01T14:08:10.649Z,9.20
2018-04-01T14:12:12.758Z,11.20
2018-04-01T14:16:14.908Z,10.57
2018-04-01T14:20:17.056Z,11.30
2018-04-01T14:24:19.973Z,10.83
2018-04-01T14:28:22.088Z,12.00
2018-04-01T14:32:24.240Z,10.10
2018-04-01T14:36:26.383Z,9.50
2018-04-01T14:40:29.293Z,9.37
2018-04-01T14:44:31.437Z,10.50
2018-04-01T14:48:34.317Z,10.40
2018-04-01T14:52:36.471Z,11.10
2018-04-01T14:56:38.715Z,9.60
2018-04-01T15:00:40.866Z,10.87
2018-04-01T15:04:43.783Z,12.43
2018-04-01T15:08:45.889Z,11.03
2018-04-01T15:12:48.038Z,11.60
2018-04-01T15:16:50.173Z,11.73
2018-04-01T15:20:53.033Z,11.03
2018-04-01T15:24:55.388Z,10.83
2018-04-01T15:28:57.507Z,11.17
2018-04-01T15:32:59.654Z,11.73
2018-04-01T15:37:01.810Z,9.53
2018-04-01T15:41:04.876Z,12.07
2018-04-01T15:45:07.050Z,11.63
2018-04-01T15:49:09.195Z,11.13
2018-04-01T15:53:11.456Z,11.07
2018-04-01T15:57:13.597Z,9.20
2018-04-01T16:01:16.509Z,10.17
2018-04-01T16:05:19.905Z,12.80
2018-04-01T16:09:23.396Z,9.00
2018-04-01T16:13:25.555Z,12.07
2018-04-01T16:17:27.800Z,12.67
2018-04-01T16:21:29.953Z,10.57
2018-04-01T16:25:32.835Z,13.70
2018-04-01T16:29:34.982Z,11.70
2018-04-01T16:33:37.134Z,14.50
2018-04-01T16:37:40.051Z,14.30
2018-04-01T16:41:42.197Z,14.50
2018-04-01T16:45:44.313Z,13.63
2018-04-01T16:49:46.461Z,14.07
2018-04-01T16:53:48.646Z,14.90
2018-04-01T16:57:50.790Z,15.37
2018-04-01T17:01:53.702Z,12.43
2018-04-01T17:05:55.845Z,15.33
2018-04-01T17:09:58.762Z,15.07
2018-04-01T17:14:00.905Z,15.90
2018-04-01T17:18:03.053Z,15.73
2018-04-01T17:22:05.197Z,14.13
2018-04-01T17:26:07.385Z,15.37
2018-04-01T17:30:10.305Z,14.73
2018-04-01T17:34:12.457Z,16.60
2018-04-01T17:38:14.611Z,19.43
2018-04-01T17:42:16.721Z,22.13
2018-04-01T17:46:18.873Z,21.20
2018-04-01T17:50:21.026Z,22.37
2018-04-01T17:54:23.980Z,19.93
2018-04-01T17:58:26.148Z,20.73
2018-04-01T18:02:28.434Z,20.60
2018-04-01T18:06:30.581Z,21.13
2018-04-01T18:10:32.729Z,22.87
2018-04-01T18:14:35.642Z,24.87
2018-04-01T18:18:38.555Z,35.40
2018-04-01T18:22:40.665Z,45.37
2018-04-01T18:26:42.818Z,83.47
2018-04-01T18:30:44.978Z,67.97
2018-04-01T18:34:47.161Z,47.30
2018-04-01T18:38:49.311Z,41.33
2018-04-01T18:42:52.193Z,51.77
2018-04-01T18:46:54.337Z,40.77
2018-04-01T18:50:56.484Z,45.87
2018-04-01T18:54:59.692Z,29.37
2018-04-01T18:59:02.315Z,38.57
2018-04-01T19:03:04.467Z,31.43
2018-04-01T19:07:06.620Z,37.27
2018-04-01T19:11:08.772Z,40.63
2018-04-01T19:15:11.682Z,45.43
2018-04-01T19:19:14.294Z,41.17
2018-04-01T19:23:16.957Z,34.87
2018-04-01T19:27:19.592Z,39.63
2018-04-01T19:31:22.234Z,34.17
2018-04-01T19:35:24.894Z,21.37
2018-04-01T19:39:27.650Z,17.93
2018-04-01T19:43:30.415Z,14.77
2018-04-01T19:47:33.045Z,16.43
2018-04-01T19:51:35.798Z,17.93
2018-04-01T19:55:38.438Z,18.10
2018-04-01T19:59:41.039Z,19.13
2018-04-01T20:03:44.446Z,26.47
2018-04-01T20:07:47.848Z,32.37
2018-04-01T20:11:51.258Z,36.30
2018-04-01T20:15:54.681Z,38.03
2018-04-01T20:19:58.092Z,35.80
2018-04-01T20:24:00.737Z,29.73
2018-04-01T20:28:03.455Z,29.10
2018-04-01T20:32:06.874Z,28.47
2018-04-01T20:36:09.573Z,26.20
2018-04-01T20:40:12.245Z,28.00
2018-04-01T20:44:14.890Z,27.90
2018-04-01T20:48:17.532Z,29.17
2018-04-01T20:52:20.165Z,31.23
2018-04-01T20:56:22.769Z,33.00
2018-04-01T21:00:25.404Z,34.17
2018-04-01T21:04:28.098Z,38.93
2018-04-01T21:08:30.794Z,37.43
2018-04-01T21:12:33.468Z,38.80
2018-04-01T21:16:36.106Z,40.37
2018-04-01T21:20:38.806Z,41.73
2018-04-01T21:24:41.444Z,42.77
2018-04-01T21:28:44.081Z,44.17
2018-04-01T21:32:46.690Z,47.83
2018-04-01T21:36:50.097Z,49.03
2018-04-01T21:40:53.509Z,45.00
2018-04-01T21:44:56.924Z,47.30
2018-04-01T21:48:59.577Z,48.40
2018-04-01T21:53:03.026Z,44.87
2018-04-01T21:57:05.729Z,48.20
2018-04-01T22:01:08.378Z,46.10
2018-04-01T22:05:11.789Z,49.73
2018-04-01T22:09:15.198Z,43.77
2018-04-01T22:13:18.572Z,45.80
2018-04-01T22:17:21.216Z,42.33
2018-04-01T22:21:23.872Z,41.80
2018-04-01T22:25:27.282Z,39.47
2018-04-01T22:29:30.691Z,38.13
2018-04-01T22:33:34.121Z,40.93
2018-04-01T22:37:36.758Z,41.27
2018-04-01T22:41:40.192Z,41.23
2018-04-01T22:45:43.604Z,40.33
2018-04-01T22:49:46.977Z,44.90
2018-04-01T22:53:49.618Z,45.37
2018-04-01T22:57:52.277Z,46.17
2018-04-01T23:01:55.741Z,46.33
2018-04-01T23:05:58.385Z,47.20
2018-04-01T23:10:00.997Z,48.40
2018-04-01T23:14:03.714Z,47.07
2018-04-01T23:18:06.359Z,44.93
2018-04-01T23:22:08.998Z,44.43
2018-04-01T23:26:11.693Z,44.83
2018-04-01T23:30:14.298Z,44.60
2018-04-01T23:34:17.701Z,45.73
2018-04-01T23:38:20.394Z,44.57
2018-04-01T23:42:23.079Z,45.20
2018-04-01T23:46:25.726Z,46.47
2018-04-01T23:50:28.338Z,48.00
2018-04-01T23:54:31.033Z,49.17
2018-04-01T23:58:33.728Z,48.47
